<?xml version="1.0" encoding="utf-8"?>
<gpx xmlns:xsi="http://www.w3.org/2001/XMLSchema-instance" xmlns:xsd="http://www.w3.org/2001/XMLSchema" xsi:schemaLocation="http://www.topografix.com/GPX/1/1 http://www.topografix.com/GPX/1/1/gpx.xsd" xmlns="http://www.topografix.com/GPX/1/1">
  <wpt lat="45.9316376" lon="13.525913616666667">
    <name>wpt-2009-10-29T14:13:14.0000000Z</name>
    <link href="gpslog_2009-10-29_141250/2009-10-29_141314.wav" />
  </wpt>
  <wpt lat="45.930753816666666" lon="13.526086366666666">
    <name>wpt-2009-10-29T14:13:33.0000000Z</name>
    <link href="gpslog_2009-10-29_141250/2009-10-29_141333.wav" />
  </wpt>
  <wpt lat="45.930614966666667" lon="13.52624235">
    <name>wpt-2009-10-29T14:13:36.0000000Z</name>
    <time>2009-10-29T14:13:36Z</time>
  </wpt>
  <wpt lat="45.930012766666664" lon="13.526934516666667">
    <name>wpt-2009-10-29T14:13:51.0000000Z</name>
    <link href="gpslog_2009-10-29_141250/2009-10-29_141351.wav" />
  </wpt>
  <wpt lat="45.93010685" lon="13.527539783333333">
    <name>wpt-2009-10-29T14:13:58.0000000Z</name>
    <link href="gpslog_2009-10-29_141250/2009-10-29_141358.wav" />
  </wpt>
  <wpt lat="45.93049271666667" lon="13.52875985">
    <name>wpt-2009-10-29T14:14:10.0000000Z</name>
    <link href="gpslog_2009-10-29_141250/2009-10-29_141410.wav" />
  </wpt>
  <wpt lat="45.936886983333331" lon="13.544910683333333">
    <name>wpt-2009-10-29T14:16:46.0000000Z</name>
    <link href="gpslog_2009-10-29_141250/2009-10-29_141646.wav" />
  </wpt>
  <wpt lat="45.937300366666669" lon="13.545490716666666">
    <name>wpt-2009-10-29T14:16:53.0000000Z</name>
    <link href="gpslog_2009-10-29_141250/2009-10-29_141653.wav" />
  </wpt>
  <wpt lat="45.93769495" lon="13.546212566666666">
    <name>wpt-2009-10-29T14:17:02.0000000Z</name>
    <link href="gpslog_2009-10-29_141250/2009-10-29_141702.wav" />
  </wpt>
  <wpt lat="45.937904116666665" lon="13.546794516666667">
    <name>wpt-2009-10-29T14:17:12.0000000Z</name>
    <link href="gpslog_2009-10-29_141250/2009-10-29_141712.wav" />
  </wpt>
  <wpt lat="45.938261783333331" lon="13.547490383333333">
    <name>wpt-2009-10-29T14:17:21.0000000Z</name>
    <link href="gpslog_2009-10-29_141250/2009-10-29_141721.wav" />
  </wpt>
  <wpt lat="45.93857211666667" lon="13.54921345">
    <name>wpt-2009-10-29T14:17:37.0000000Z</name>
    <link href="gpslog_2009-10-29_141250/2009-10-29_141737.wav" />
  </wpt>
  <wpt lat="45.93623155" lon="13.559207116666666">
    <name>wpt-2009-10-29T14:19:28.0000000Z</name>
    <link href="gpslog_2009-10-29_141250/2009-10-29_141928.wav" />
  </wpt>
  <wpt lat="45.935832033333334" lon="13.562060566666666">
    <name>wpt-2009-10-29T14:19:47.0000000Z</name>
    <link href="gpslog_2009-10-29_141250/2009-10-29_141947.wav" />
  </wpt>
  <wpt lat="45.935515316666667" lon="13.563776433333333">
    <name>wpt-2009-10-29T14:19:59.0000000Z</name>
    <link href="gpslog_2009-10-29_141250/2009-10-29_141959.wav" />
  </wpt>
  <wpt lat="45.9351774" lon="13.5658626">
    <name>wpt-2009-10-29T14:20:13.0000000Z</name>
    <link href="gpslog_2009-10-29_141250/2009-10-29_142013.wav" />
  </wpt>
  <wpt lat="45.93513885" lon="13.569492216666667">
    <name>wpt-2009-10-29T14:20:38.0000000Z</name>
    <link href="gpslog_2009-10-29_141250/2009-10-29_142038.wav" />
  </wpt>
  <wpt lat="45.935644266666664" lon="13.5723263">
    <name>wpt-2009-10-29T14:21:00.0000000Z</name>
    <link href="gpslog_2009-10-29_141250/2009-10-29_142100.wav" />
  </wpt>
  <wpt lat="45.935755166666667" lon="13.5729055">
    <name>wpt-2009-10-29T14:21:05.0000000Z</name>
    <link href="gpslog_2009-10-29_141250/2009-10-29_142105.wav" />
  </wpt>
  <wpt lat="45.936078583333334" lon="13.574661833333334">
    <name>wpt-2009-10-29T14:21:20.0000000Z</name>
    <link href="gpslog_2009-10-29_141250/2009-10-29_142120.wav" />
  </wpt>
  <wpt lat="45.936129083333334" lon="13.575512933333334">
    <name>wpt-2009-10-29T14:21:28.0000000Z</name>
    <link href="gpslog_2009-10-29_141250/2009-10-29_142128.wav" />
  </wpt>
  <trk>
    <trkseg>
      <trkpt lat="45.931580233333335" lon="13.52589315">
        <time>2009-10-29T14:13:15Z</time>
      </trkpt>
      <trkpt lat="45.931534416666665" lon="13.5258727">
        <time>2009-10-29T14:13:16Z</time>
      </trkpt>
      <trkpt lat="45.931487516666664" lon="13.5258593">
        <time>2009-10-29T14:13:17Z</time>
      </trkpt>
      <trkpt lat="45.9314462" lon="13.525848316666666">
        <time>2009-10-29T14:13:18Z</time>
      </trkpt>
      <trkpt lat="45.931408233333336" lon="13.525841183333334">
        <time>2009-10-29T14:13:19Z</time>
      </trkpt>
      <trkpt lat="45.931367066666667" lon="13.52583465">
        <time>2009-10-29T14:13:20Z</time>
      </trkpt>
      <trkpt lat="45.931317533333335" lon="13.52582895">
        <time>2009-10-29T14:13:21Z</time>
      </trkpt>
      <trkpt lat="45.931266616666669" lon="13.5258292">
        <time>2009-10-29T14:13:22Z</time>
      </trkpt>
      <trkpt lat="45.931211633333334" lon="13.525833066666667">
        <time>2009-10-29T14:13:23Z</time>
      </trkpt>
      <trkpt lat="45.931166166666664" lon="13.5258437">
        <time>2009-10-29T14:13:24Z</time>
      </trkpt>
      <trkpt lat="45.931121566666668" lon="13.5258556">
        <time>2009-10-29T14:13:25Z</time>
      </trkpt>
      <trkpt lat="45.931081383333336" lon="13.525865416666667">
        <time>2009-10-29T14:13:26Z</time>
      </trkpt>
      <trkpt lat="45.931040933333335" lon="13.525875633333333">
        <time>2009-10-29T14:13:27Z</time>
      </trkpt>
      <trkpt lat="45.930997766666664" lon="13.525893416666667">
        <time>2009-10-29T14:13:28Z</time>
      </trkpt>
      <trkpt lat="45.930951033333336" lon="13.52591905">
        <time>2009-10-29T14:13:29Z</time>
      </trkpt>
      <trkpt lat="45.930904683333331" lon="13.525949566666666">
        <time>2009-10-29T14:13:30Z</time>
      </trkpt>
      <trkpt lat="45.930855016666669" lon="13.52598745">
        <time>2009-10-29T14:13:31Z</time>
      </trkpt>
      <trkpt lat="45.9308064" lon="13.52603565">
        <time>2009-10-29T14:13:32Z</time>
      </trkpt>
      <trkpt lat="45.930753816666666" lon="13.526086366666666">
        <time>2009-10-29T14:13:33Z</time>
      </trkpt>
      <trkpt lat="45.93070423333333" lon="13.526139416666666">
        <time>2009-10-29T14:13:34Z</time>
      </trkpt>
      <trkpt lat="45.93065716666667" lon="13.526188533333332">
        <time>2009-10-29T14:13:35Z</time>
      </trkpt>
      <trkpt lat="45.930614966666667" lon="13.52624235">
        <time>2009-10-29T14:13:36Z</time>
      </trkpt>
      <trkpt lat="45.930564716666666" lon="13.526286683333334">
        <time>2009-10-29T14:13:37Z</time>
      </trkpt>
      <trkpt lat="45.9305161" lon="13.52633035">
        <time>2009-10-29T14:13:38Z</time>
      </trkpt>
      <trkpt lat="45.930471216666668" lon="13.526374616666667">
        <time>2009-10-29T14:13:39Z</time>
      </trkpt>
      <trkpt lat="45.930423733333335" lon="13.526419533333334">
        <time>2009-10-29T14:13:40Z</time>
      </trkpt>
      <trkpt lat="45.9303731" lon="13.5264648">
        <time>2009-10-29T14:13:41Z</time>
      </trkpt>
      <trkpt lat="45.9303239" lon="13.526505616666666">
        <time>2009-10-29T14:13:42Z</time>
      </trkpt>
      <trkpt lat="45.930270716666669" lon="13.526538483333333">
        <time>2009-10-29T14:13:43Z</time>
      </trkpt>
      <trkpt lat="45.930218833333335" lon="13.526566733333333">
        <time>2009-10-29T14:13:44Z</time>
      </trkpt>
      <trkpt lat="45.93016741666667" lon="13.526597733333332">
        <time>2009-10-29T14:13:45Z</time>
      </trkpt>
      <trkpt lat="45.930116066666663" lon="13.526630266666666">
        <time>2009-10-29T14:13:46Z</time>
      </trkpt>
      <trkpt lat="45.930074033333334" lon="13.526668316666667">
        <time>2009-10-29T14:13:47Z</time>
      </trkpt>
      <trkpt lat="45.930038716666665" lon="13.526717266666667">
        <time>2009-10-29T14:13:48Z</time>
      </trkpt>
      <trkpt lat="45.930016833333333" lon="13.52678055">
        <time>2009-10-29T14:13:49Z</time>
      </trkpt>
      <trkpt lat="45.930016166666668" lon="13.526859666666667">
        <time>2009-10-29T14:13:50Z</time>
      </trkpt>
      <trkpt lat="45.930012766666664" lon="13.526934516666667">
        <time>2009-10-29T14:13:51Z</time>
      </trkpt>
      <trkpt lat="45.93001841666667" lon="13.527015083333334">
        <time>2009-10-29T14:13:52Z</time>
      </trkpt>
      <trkpt lat="45.9300227" lon="13.527100566666666">
        <time>2009-10-29T14:13:53Z</time>
      </trkpt>
      <trkpt lat="45.930027433333336" lon="13.527181283333334">
        <time>2009-10-29T14:13:54Z</time>
      </trkpt>
      <trkpt lat="45.930043233333336" lon="13.52726595">
        <time>2009-10-29T14:13:55Z</time>
      </trkpt>
      <trkpt lat="45.930064566666665" lon="13.527355633333332">
        <time>2009-10-29T14:13:56Z</time>
      </trkpt>
      <trkpt lat="45.93008531666667" lon="13.527445566666668">
        <time>2009-10-29T14:13:57Z</time>
      </trkpt>
      <trkpt lat="45.93010685" lon="13.527539783333333">
        <time>2009-10-29T14:13:58Z</time>
      </trkpt>
      <trkpt lat="45.93013091666667" lon="13.527632983333334">
        <time>2009-10-29T14:13:59Z</time>
      </trkpt>
      <trkpt lat="45.93015895" lon="13.527730133333334">
        <time>2009-10-29T14:14:00Z</time>
      </trkpt>
      <trkpt lat="45.930185216666665" lon="13.527825683333333">
        <time>2009-10-29T14:14:01Z</time>
      </trkpt>
      <trkpt lat="45.930213516666669" lon="13.527921333333333">
        <time>2009-10-29T14:14:02Z</time>
      </trkpt>
      <trkpt lat="45.930244866666669" lon="13.5280199">
        <time>2009-10-29T14:14:03Z</time>
      </trkpt>
      <trkpt lat="45.9302729" lon="13.528117133333334">
        <time>2009-10-29T14:14:04Z</time>
      </trkpt>
      <trkpt lat="45.930304416666665" lon="13.5282183">
        <time>2009-10-29T14:14:05Z</time>
      </trkpt>
      <trkpt lat="45.93033823333333" lon="13.528322066666666">
        <time>2009-10-29T14:14:06Z</time>
      </trkpt>
      <trkpt lat="45.93037415" lon="13.5284281">
        <time>2009-10-29T14:14:07Z</time>
      </trkpt>
      <trkpt lat="45.9304099" lon="13.5285369">
        <time>2009-10-29T14:14:08Z</time>
      </trkpt>
      <trkpt lat="45.93044955" lon="13.528647033333334">
        <time>2009-10-29T14:14:09Z</time>
      </trkpt>
      <trkpt lat="45.93049271666667" lon="13.52875985">
        <time>2009-10-29T14:14:10Z</time>
      </trkpt>
      <trkpt lat="45.93053496666667" lon="13.528874683333333">
        <time>2009-10-29T14:14:11Z</time>
      </trkpt>
      <trkpt lat="45.9305785" lon="13.52899085">
        <time>2009-10-29T14:14:12Z</time>
      </trkpt>
      <trkpt lat="45.930621583333334" lon="13.529105766666667">
        <time>2009-10-29T14:14:13Z</time>
      </trkpt>
      <trkpt lat="45.930664083333333" lon="13.529221866666667">
        <time>2009-10-29T14:14:14Z</time>
      </trkpt>
      <trkpt lat="45.930711016666663" lon="13.529342566666667">
        <time>2009-10-29T14:14:15Z</time>
      </trkpt>
      <trkpt lat="45.930758466666667" lon="13.529463433333333">
        <time>2009-10-29T14:14:16Z</time>
      </trkpt>
      <trkpt lat="45.930804816666665" lon="13.529586566666667">
        <time>2009-10-29T14:14:17Z</time>
      </trkpt>
      <trkpt lat="45.93086705" lon="13.5297138">
        <time>2009-10-29T14:14:18Z</time>
      </trkpt>
      <trkpt lat="45.930923966666668" lon="13.52983475">
        <time>2009-10-29T14:14:19Z</time>
      </trkpt>
      <trkpt lat="45.9309722" lon="13.52995755">
        <time>2009-10-29T14:14:20Z</time>
      </trkpt>
      <trkpt lat="45.931013183333334" lon="13.53007925">
        <time>2009-10-29T14:14:21Z</time>
      </trkpt>
      <trkpt lat="45.931063066666667" lon="13.53019995">
        <time>2009-10-29T14:14:22Z</time>
      </trkpt>
      <trkpt lat="45.93110355" lon="13.530309166666667">
        <time>2009-10-29T14:14:23Z</time>
      </trkpt>
      <trkpt lat="45.931153383333331" lon="13.530412766666666">
        <time>2009-10-29T14:14:24Z</time>
      </trkpt>
      <trkpt lat="45.9311947" lon="13.530516116666666">
        <time>2009-10-29T14:14:25Z</time>
      </trkpt>
      <trkpt lat="45.931244616666667" lon="13.53062625">
        <time>2009-10-29T14:14:26Z</time>
      </trkpt>
      <trkpt lat="45.931271433333336" lon="13.53073865">
        <time>2009-10-29T14:14:27Z</time>
      </trkpt>
      <trkpt lat="45.93131515" lon="13.530864383333334">
        <time>2009-10-29T14:14:28Z</time>
      </trkpt>
      <trkpt lat="45.931366733333334" lon="13.530995983333334">
        <time>2009-10-29T14:14:29Z</time>
      </trkpt>
      <trkpt lat="45.93141975" lon="13.531136616666666">
        <time>2009-10-29T14:14:30Z</time>
      </trkpt>
      <trkpt lat="45.9314679" lon="13.5312776">
        <time>2009-10-29T14:14:31Z</time>
      </trkpt>
      <trkpt lat="45.93152083333333" lon="13.53141885">
        <time>2009-10-29T14:14:32Z</time>
      </trkpt>
      <trkpt lat="45.931575066666667" lon="13.531562083333334">
        <time>2009-10-29T14:14:33Z</time>
      </trkpt>
      <trkpt lat="45.931627283333334" lon="13.5317014">
        <time>2009-10-29T14:14:34Z</time>
      </trkpt>
      <trkpt lat="45.931678133333335" lon="13.53184095">
        <time>2009-10-29T14:14:35Z</time>
      </trkpt>
      <trkpt lat="45.9317391" lon="13.5319837">
        <time>2009-10-29T14:14:36Z</time>
      </trkpt>
      <trkpt lat="45.931795133333331" lon="13.532129716666667">
        <time>2009-10-29T14:14:37Z</time>
      </trkpt>
      <trkpt lat="45.931851716666664" lon="13.532277233333334">
        <time>2009-10-29T14:14:38Z</time>
      </trkpt>
      <trkpt lat="45.931908333333332" lon="13.53242535">
        <time>2009-10-29T14:14:39Z</time>
      </trkpt>
      <trkpt lat="45.931967883333336" lon="13.532573283333333">
        <time>2009-10-29T14:14:40Z</time>
      </trkpt>
      <trkpt lat="45.932030716666667" lon="13.532723733333333">
        <time>2009-10-29T14:14:41Z</time>
      </trkpt>
      <trkpt lat="45.932091566666664" lon="13.532872183333334">
        <time>2009-10-29T14:14:42Z</time>
      </trkpt>
      <trkpt lat="45.932152716666664" lon="13.533021633333334">
        <time>2009-10-29T14:14:43Z</time>
      </trkpt>
      <trkpt lat="45.932211166666669" lon="13.533171333333334">
        <time>2009-10-29T14:14:44Z</time>
      </trkpt>
      <trkpt lat="45.932276" lon="13.5333202">
        <time>2009-10-29T14:14:45Z</time>
      </trkpt>
      <trkpt lat="45.9323366" lon="13.533467966666667">
        <time>2009-10-29T14:14:46Z</time>
      </trkpt>
      <trkpt lat="45.9323975" lon="13.533611383333334">
        <time>2009-10-29T14:14:47Z</time>
      </trkpt>
      <trkpt lat="45.932456766666668" lon="13.533751283333334">
        <time>2009-10-29T14:14:48Z</time>
      </trkpt>
      <trkpt lat="45.932514433333331" lon="13.533889833333333">
        <time>2009-10-29T14:14:49Z</time>
      </trkpt>
      <trkpt lat="45.9325713" lon="13.534028133333333">
        <time>2009-10-29T14:14:50Z</time>
      </trkpt>
      <trkpt lat="45.932621516666664" lon="13.53416115">
        <time>2009-10-29T14:14:51Z</time>
      </trkpt>
      <trkpt lat="45.932667316666667" lon="13.53428915">
        <time>2009-10-29T14:14:52Z</time>
      </trkpt>
      <trkpt lat="45.93271945" lon="13.534410933333334">
        <time>2009-10-29T14:14:53Z</time>
      </trkpt>
      <trkpt lat="45.93276516666667" lon="13.534522083333334">
        <time>2009-10-29T14:14:54Z</time>
      </trkpt>
      <trkpt lat="45.932802133333333" lon="13.534623416666667">
        <time>2009-10-29T14:14:55Z</time>
      </trkpt>
      <trkpt lat="45.93283415" lon="13.534711166666666">
        <time>2009-10-29T14:14:56Z</time>
      </trkpt>
      <trkpt lat="45.932857466666668" lon="13.534784016666666">
        <time>2009-10-29T14:14:57Z</time>
      </trkpt>
      <trkpt lat="45.932867766666668" lon="13.534858016666666">
        <time>2009-10-29T14:14:58Z</time>
      </trkpt>
      <trkpt lat="45.932887933333333" lon="13.534952316666667">
        <time>2009-10-29T14:14:59Z</time>
      </trkpt>
      <trkpt lat="45.932907833333331" lon="13.535073516666667">
        <time>2009-10-29T14:15:00Z</time>
      </trkpt>
      <trkpt lat="45.9329225" lon="13.535217016666667">
        <time>2009-10-29T14:15:01Z</time>
      </trkpt>
      <trkpt lat="45.932939433333331" lon="13.535370066666667">
        <time>2009-10-29T14:15:02Z</time>
      </trkpt>
      <trkpt lat="45.93295695" lon="13.53552765">
        <time>2009-10-29T14:15:03Z</time>
      </trkpt>
      <trkpt lat="45.932974933333334" lon="13.535694283333333">
        <time>2009-10-29T14:15:04Z</time>
      </trkpt>
      <trkpt lat="45.932994" lon="13.535871066666667">
        <time>2009-10-29T14:15:05Z</time>
      </trkpt>
      <trkpt lat="45.933013033333332" lon="13.53605135">
        <time>2009-10-29T14:15:06Z</time>
      </trkpt>
      <trkpt lat="45.933034566666663" lon="13.536236">
        <time>2009-10-29T14:15:07Z</time>
      </trkpt>
      <trkpt lat="45.933056066666666" lon="13.536423766666667">
        <time>2009-10-29T14:15:08Z</time>
      </trkpt>
      <trkpt lat="45.933078116666664" lon="13.5366163">
        <time>2009-10-29T14:15:09Z</time>
      </trkpt>
      <trkpt lat="45.9331002" lon="13.536810166666667">
        <time>2009-10-29T14:15:10Z</time>
      </trkpt>
      <trkpt lat="45.933122533333332" lon="13.537003783333333">
        <time>2009-10-29T14:15:11Z</time>
      </trkpt>
      <trkpt lat="45.93314818333333" lon="13.537198083333333">
        <time>2009-10-29T14:15:12Z</time>
      </trkpt>
      <trkpt lat="45.933173533333331" lon="13.537392633333333">
        <time>2009-10-29T14:15:13Z</time>
      </trkpt>
      <trkpt lat="45.9332004" lon="13.537586416666667">
        <time>2009-10-29T14:15:14Z</time>
      </trkpt>
      <trkpt lat="45.933226983333334" lon="13.5377802">
        <time>2009-10-29T14:15:15Z</time>
      </trkpt>
      <trkpt lat="45.933258483333333" lon="13.537974">
        <time>2009-10-29T14:15:16Z</time>
      </trkpt>
      <trkpt lat="45.93328975" lon="13.538167033333334">
        <time>2009-10-29T14:15:17Z</time>
      </trkpt>
      <trkpt lat="45.93331985" lon="13.53836225">
        <time>2009-10-29T14:15:18Z</time>
      </trkpt>
      <trkpt lat="45.933350183333332" lon="13.5385572">
        <time>2009-10-29T14:15:19Z</time>
      </trkpt>
      <trkpt lat="45.933380833333331" lon="13.538751083333333">
        <time>2009-10-29T14:15:20Z</time>
      </trkpt>
      <trkpt lat="45.933410783333336" lon="13.538945533333333">
        <time>2009-10-29T14:15:21Z</time>
      </trkpt>
      <trkpt lat="45.93344033333333" lon="13.539136066666666">
        <time>2009-10-29T14:15:22Z</time>
      </trkpt>
      <trkpt lat="45.93346925" lon="13.539323066666666">
        <time>2009-10-29T14:15:23Z</time>
      </trkpt>
      <trkpt lat="45.933499133333335" lon="13.539508966666666">
        <time>2009-10-29T14:15:24Z</time>
      </trkpt>
      <trkpt lat="45.93352725" lon="13.5396927">
        <time>2009-10-29T14:15:25Z</time>
      </trkpt>
      <trkpt lat="45.933555383333335" lon="13.5398709">
        <time>2009-10-29T14:15:26Z</time>
      </trkpt>
      <trkpt lat="45.933583583333331" lon="13.540047083333333">
        <time>2009-10-29T14:15:27Z</time>
      </trkpt>
      <trkpt lat="45.9336117" lon="13.540218583333333">
        <time>2009-10-29T14:15:28Z</time>
      </trkpt>
      <trkpt lat="45.933637733333335" lon="13.54039075">
        <time>2009-10-29T14:15:29Z</time>
      </trkpt>
      <trkpt lat="45.933664966666669" lon="13.540561733333334">
        <time>2009-10-29T14:15:30Z</time>
      </trkpt>
      <trkpt lat="45.933692333333333" lon="13.5407293">
        <time>2009-10-29T14:15:31Z</time>
      </trkpt>
      <trkpt lat="45.933722216666666" lon="13.5408966">
        <time>2009-10-29T14:15:32Z</time>
      </trkpt>
      <trkpt lat="45.9337529" lon="13.541062133333334">
        <time>2009-10-29T14:15:33Z</time>
      </trkpt>
      <trkpt lat="45.9337845" lon="13.541223916666667">
        <time>2009-10-29T14:15:34Z</time>
      </trkpt>
      <trkpt lat="45.933816566666664" lon="13.541382">
        <time>2009-10-29T14:15:35Z</time>
      </trkpt>
      <trkpt lat="45.93384485" lon="13.541535133333333">
        <time>2009-10-29T14:15:36Z</time>
      </trkpt>
      <trkpt lat="45.933869833333333" lon="13.541683233333334">
        <time>2009-10-29T14:15:37Z</time>
      </trkpt>
      <trkpt lat="45.933893716666667" lon="13.5418192">
        <time>2009-10-29T14:15:38Z</time>
      </trkpt>
      <trkpt lat="45.933917683333334" lon="13.541931433333334">
        <time>2009-10-29T14:15:39Z</time>
      </trkpt>
      <trkpt lat="45.933945466666664" lon="13.542019683333333">
        <time>2009-10-29T14:15:40Z</time>
      </trkpt>
      <trkpt lat="45.933982266666668" lon="13.542076266666667">
        <time>2009-10-29T14:15:41Z</time>
      </trkpt>
      <trkpt lat="45.93403775" lon="13.542101416666666">
        <time>2009-10-29T14:15:42Z</time>
      </trkpt>
      <trkpt lat="45.9341075" lon="13.542098066666666">
        <time>2009-10-29T14:15:43Z</time>
      </trkpt>
      <trkpt lat="45.934192066666668" lon="13.54208355">
        <time>2009-10-29T14:15:44Z</time>
      </trkpt>
      <trkpt lat="45.93428825" lon="13.5420652">
        <time>2009-10-29T14:15:45Z</time>
      </trkpt>
      <trkpt lat="45.934392316666667" lon="13.542042233333333">
        <time>2009-10-29T14:15:46Z</time>
      </trkpt>
      <trkpt lat="45.934503866666667" lon="13.54202045">
        <time>2009-10-29T14:15:47Z</time>
      </trkpt>
      <trkpt lat="45.934627466666669" lon="13.541996966666666">
        <time>2009-10-29T14:15:48Z</time>
      </trkpt>
      <trkpt lat="45.934756583333332" lon="13.541978033333333">
        <time>2009-10-29T14:15:49Z</time>
      </trkpt>
      <trkpt lat="45.934889183333333" lon="13.54195665">
        <time>2009-10-29T14:15:50Z</time>
      </trkpt>
      <trkpt lat="45.935025433333337" lon="13.54193235">
        <time>2009-10-29T14:15:51Z</time>
      </trkpt>
      <trkpt lat="45.935160633333332" lon="13.541910966666666">
        <time>2009-10-29T14:15:52Z</time>
      </trkpt>
      <trkpt lat="45.935294866666666" lon="13.541891616666666">
        <time>2009-10-29T14:15:53Z</time>
      </trkpt>
      <trkpt lat="45.935427483333335" lon="13.541872916666666">
        <time>2009-10-29T14:15:54Z</time>
      </trkpt>
      <trkpt lat="45.93556293333333" lon="13.541854066666666">
        <time>2009-10-29T14:15:55Z</time>
      </trkpt>
      <trkpt lat="45.93569675" lon="13.54183085">
        <time>2009-10-29T14:15:56Z</time>
      </trkpt>
      <trkpt lat="45.935819416666668" lon="13.541805783333333">
        <time>2009-10-29T14:15:57Z</time>
      </trkpt>
      <trkpt lat="45.935930216666669" lon="13.541787166666667">
        <time>2009-10-29T14:15:58Z</time>
      </trkpt>
      <trkpt lat="45.936028383333337" lon="13.54177335">
        <time>2009-10-29T14:15:59Z</time>
      </trkpt>
      <trkpt lat="45.936125733333334" lon="13.5417694">
        <time>2009-10-29T14:16:00Z</time>
      </trkpt>
      <trkpt lat="45.93622095" lon="13.54177275">
        <time>2009-10-29T14:16:01Z</time>
      </trkpt>
      <trkpt lat="45.9363142" lon="13.541793466666666">
        <time>2009-10-29T14:16:02Z</time>
      </trkpt>
      <trkpt lat="45.936417416666664" lon="13.541829083333333">
        <time>2009-10-29T14:16:03Z</time>
      </trkpt>
      <trkpt lat="45.93651306666667" lon="13.541873416666666">
        <time>2009-10-29T14:16:04Z</time>
      </trkpt>
      <trkpt lat="45.9366001" lon="13.541920533333334">
        <time>2009-10-29T14:16:05Z</time>
      </trkpt>
      <trkpt lat="45.936682116666667" lon="13.541965033333334">
        <time>2009-10-29T14:16:06Z</time>
      </trkpt>
      <trkpt lat="45.936762333333334" lon="13.542006283333333">
        <time>2009-10-29T14:16:07Z</time>
      </trkpt>
      <trkpt lat="45.93682705" lon="13.542048183333334">
        <time>2009-10-29T14:16:08Z</time>
      </trkpt>
      <trkpt lat="45.936876366666667" lon="13.542103333333333">
        <time>2009-10-29T14:16:09Z</time>
      </trkpt>
      <trkpt lat="45.9368902" lon="13.54216495">
        <time>2009-10-29T14:16:10Z</time>
      </trkpt>
      <trkpt lat="45.936857216666667" lon="13.5422175">
        <time>2009-10-29T14:16:11Z</time>
      </trkpt>
      <trkpt lat="45.9368081" lon="13.542253116666666">
        <time>2009-10-29T14:16:12Z</time>
      </trkpt>
      <trkpt lat="45.936739583333335" lon="13.542279533333334">
        <time>2009-10-29T14:16:13Z</time>
      </trkpt>
      <trkpt lat="45.936655133333332" lon="13.542307016666667">
        <time>2009-10-29T14:16:14Z</time>
      </trkpt>
      <trkpt lat="45.936565233333333" lon="13.54234005">
        <time>2009-10-29T14:16:15Z</time>
      </trkpt>
      <trkpt lat="45.93647106666667" lon="13.54237055">
        <time>2009-10-29T14:16:16Z</time>
      </trkpt>
      <trkpt lat="45.93637685" lon="13.542400733333332">
        <time>2009-10-29T14:16:17Z</time>
      </trkpt>
      <trkpt lat="45.936286916666667" lon="13.5424309">
        <time>2009-10-29T14:16:18Z</time>
      </trkpt>
      <trkpt lat="45.936199533333337" lon="13.542461333333334">
        <time>2009-10-29T14:16:19Z</time>
      </trkpt>
      <trkpt lat="45.936115833333332" lon="13.5424889">
        <time>2009-10-29T14:16:20Z</time>
      </trkpt>
      <trkpt lat="45.9360373" lon="13.542516483333333">
        <time>2009-10-29T14:16:21Z</time>
      </trkpt>
      <trkpt lat="45.93596698333333" lon="13.54254305">
        <time>2009-10-29T14:16:22Z</time>
      </trkpt>
      <trkpt lat="45.935906716666665" lon="13.5425817">
        <time>2009-10-29T14:16:23Z</time>
      </trkpt>
      <trkpt lat="45.93585735" lon="13.542636766666666">
        <time>2009-10-29T14:16:24Z</time>
      </trkpt>
      <trkpt lat="45.935829766666664" lon="13.542709183333333">
        <time>2009-10-29T14:16:25Z</time>
      </trkpt>
      <trkpt lat="45.935831366666669" lon="13.5427956">
        <time>2009-10-29T14:16:26Z</time>
      </trkpt>
      <trkpt lat="45.935848166666666" lon="13.542886966666666">
        <time>2009-10-29T14:16:27Z</time>
      </trkpt>
      <trkpt lat="45.935869833333335" lon="13.542982433333334">
        <time>2009-10-29T14:16:28Z</time>
      </trkpt>
      <trkpt lat="45.935895933333335" lon="13.543085033333334">
        <time>2009-10-29T14:16:29Z</time>
      </trkpt>
      <trkpt lat="45.935927583333331" lon="13.54319315">
        <time>2009-10-29T14:16:30Z</time>
      </trkpt>
      <trkpt lat="45.935964133333336" lon="13.5433053">
        <time>2009-10-29T14:16:31Z</time>
      </trkpt>
      <trkpt lat="45.936009683333332" lon="13.543415783333334">
        <time>2009-10-29T14:16:32Z</time>
      </trkpt>
      <trkpt lat="45.9360601" lon="13.543523066666667">
        <time>2009-10-29T14:16:33Z</time>
      </trkpt>
      <trkpt lat="45.936116133333336" lon="13.543631366666666">
        <time>2009-10-29T14:16:34Z</time>
      </trkpt>
      <trkpt lat="45.93617585" lon="13.54373605">
        <time>2009-10-29T14:16:35Z</time>
      </trkpt>
      <trkpt lat="45.936237466666668" lon="13.543842166666666">
        <time>2009-10-29T14:16:36Z</time>
      </trkpt>
      <trkpt lat="45.93630078333333" lon="13.54394945">
        <time>2009-10-29T14:16:37Z</time>
      </trkpt>
      <trkpt lat="45.936367633333333" lon="13.544058833333333">
        <time>2009-10-29T14:16:38Z</time>
      </trkpt>
      <trkpt lat="45.936434933333331" lon="13.54416855">
        <time>2009-10-29T14:16:39Z</time>
      </trkpt>
      <trkpt lat="45.936501033333336" lon="13.5442781">
        <time>2009-10-29T14:16:40Z</time>
      </trkpt>
      <trkpt lat="45.936567083333337" lon="13.544386316666667">
        <time>2009-10-29T14:16:41Z</time>
      </trkpt>
      <trkpt lat="45.936632916666667" lon="13.544495533333333">
        <time>2009-10-29T14:16:42Z</time>
      </trkpt>
      <trkpt lat="45.9366962" lon="13.544601316666666">
        <time>2009-10-29T14:16:43Z</time>
      </trkpt>
      <trkpt lat="45.936760783333334" lon="13.54470675">
        <time>2009-10-29T14:16:44Z</time>
      </trkpt>
      <trkpt lat="45.936823183333331" lon="13.544808933333334">
        <time>2009-10-29T14:16:45Z</time>
      </trkpt>
      <trkpt lat="45.936886983333331" lon="13.544910683333333">
        <time>2009-10-29T14:16:46Z</time>
      </trkpt>
      <trkpt lat="45.936949216666669" lon="13.545008083333334">
        <time>2009-10-29T14:16:47Z</time>
      </trkpt>
      <trkpt lat="45.937008716666668" lon="13.545096933333333">
        <time>2009-10-29T14:16:48Z</time>
      </trkpt>
      <trkpt lat="45.937066516666668" lon="13.545179916666667">
        <time>2009-10-29T14:16:49Z</time>
      </trkpt>
      <trkpt lat="45.937123516666666" lon="13.5452572">
        <time>2009-10-29T14:16:50Z</time>
      </trkpt>
      <trkpt lat="45.937182433333334" lon="13.545334983333333">
        <time>2009-10-29T14:16:51Z</time>
      </trkpt>
      <trkpt lat="45.93724115" lon="13.5454121">
        <time>2009-10-29T14:16:52Z</time>
      </trkpt>
      <trkpt lat="45.937300366666669" lon="13.545490716666666">
        <time>2009-10-29T14:16:53Z</time>
      </trkpt>
      <trkpt lat="45.937357333333331" lon="13.545567333333333">
        <time>2009-10-29T14:16:54Z</time>
      </trkpt>
      <trkpt lat="45.937409633333331" lon="13.545642016666667">
        <time>2009-10-29T14:16:55Z</time>
      </trkpt>
      <trkpt lat="45.937456616666665" lon="13.545716783333333">
        <time>2009-10-29T14:16:56Z</time>
      </trkpt>
      <trkpt lat="45.937500283333335" lon="13.545794066666666">
        <time>2009-10-29T14:16:57Z</time>
      </trkpt>
      <trkpt lat="45.93754295" lon="13.5458757">
        <time>2009-10-29T14:16:58Z</time>
      </trkpt>
      <trkpt lat="45.9375856" lon="13.545961616666666">
        <time>2009-10-29T14:16:59Z</time>
      </trkpt>
      <trkpt lat="45.9376294" lon="13.546049533333333">
        <time>2009-10-29T14:17:00Z</time>
      </trkpt>
      <trkpt lat="45.937674533333336" lon="13.546133266666667">
        <time>2009-10-29T14:17:01Z</time>
      </trkpt>
      <trkpt lat="45.93769495" lon="13.546212566666666">
        <time>2009-10-29T14:17:02Z</time>
      </trkpt>
      <trkpt lat="45.93772176666667" lon="13.546291183333333">
        <time>2009-10-29T14:17:03Z</time>
      </trkpt>
      <trkpt lat="45.93774415" lon="13.546358083333333">
        <time>2009-10-29T14:17:04Z</time>
      </trkpt>
      <trkpt lat="45.937762333333332" lon="13.546413233333332">
        <time>2009-10-29T14:17:05Z</time>
      </trkpt>
      <trkpt lat="45.937776383333336" lon="13.546459416666666">
        <time>2009-10-29T14:17:06Z</time>
      </trkpt>
      <trkpt lat="45.93779315" lon="13.5465035">
        <time>2009-10-29T14:17:07Z</time>
      </trkpt>
      <trkpt lat="45.9378081" lon="13.546547416666666">
        <time>2009-10-29T14:17:08Z</time>
      </trkpt>
      <trkpt lat="45.937825916666668" lon="13.54659445">
        <time>2009-10-29T14:17:09Z</time>
      </trkpt>
      <trkpt lat="45.937845233333334" lon="13.546651283333333">
        <time>2009-10-29T14:17:10Z</time>
      </trkpt>
      <trkpt lat="45.93787265" lon="13.5467169">
        <time>2009-10-29T14:17:11Z</time>
      </trkpt>
      <trkpt lat="45.937904116666665" lon="13.546794516666667">
        <time>2009-10-29T14:17:12Z</time>
      </trkpt>
      <trkpt lat="45.93793785" lon="13.54687935">
        <time>2009-10-29T14:17:13Z</time>
      </trkpt>
      <trkpt lat="45.937975033333331" lon="13.546961316666666">
        <time>2009-10-29T14:17:14Z</time>
      </trkpt>
      <trkpt lat="45.9380153" lon="13.547039016666666">
        <time>2009-10-29T14:17:15Z</time>
      </trkpt>
      <trkpt lat="45.93805415" lon="13.547115633333334">
        <time>2009-10-29T14:17:16Z</time>
      </trkpt>
      <trkpt lat="45.938095233333335" lon="13.54719375">
        <time>2009-10-29T14:17:17Z</time>
      </trkpt>
      <trkpt lat="45.938137216666668" lon="13.547269183333333">
        <time>2009-10-29T14:17:18Z</time>
      </trkpt>
      <trkpt lat="45.93817925" lon="13.547343533333333">
        <time>2009-10-29T14:17:19Z</time>
      </trkpt>
      <trkpt lat="45.93821835" lon="13.547417633333334">
        <time>2009-10-29T14:17:20Z</time>
      </trkpt>
      <trkpt lat="45.938261783333331" lon="13.547490383333333">
        <time>2009-10-29T14:17:21Z</time>
      </trkpt>
      <trkpt lat="45.938301416666668" lon="13.547565833333334">
        <time>2009-10-29T14:17:22Z</time>
      </trkpt>
      <trkpt lat="45.938337966666666" lon="13.5476406">
        <time>2009-10-29T14:17:23Z</time>
      </trkpt>
      <trkpt lat="45.938374466666666" lon="13.5477183">
        <time>2009-10-29T14:17:24Z</time>
      </trkpt>
      <trkpt lat="45.938411766666668" lon="13.5478058">
        <time>2009-10-29T14:17:25Z</time>
      </trkpt>
      <trkpt lat="45.9384479" lon="13.54790345">
        <time>2009-10-29T14:17:26Z</time>
      </trkpt>
      <trkpt lat="45.938479866666668" lon="13.548007466666666">
        <time>2009-10-29T14:17:27Z</time>
      </trkpt>
      <trkpt lat="45.938504133333332" lon="13.548119033333334">
        <time>2009-10-29T14:17:28Z</time>
      </trkpt>
      <trkpt lat="45.93852535" lon="13.548235966666667">
        <time>2009-10-29T14:17:29Z</time>
      </trkpt>
      <trkpt lat="45.93853615" lon="13.54835875">
        <time>2009-10-29T14:17:30Z</time>
      </trkpt>
      <trkpt lat="45.938546516666669" lon="13.548486333333333">
        <time>2009-10-29T14:17:31Z</time>
      </trkpt>
      <trkpt lat="45.9385541" lon="13.548615483333334">
        <time>2009-10-29T14:17:32Z</time>
      </trkpt>
      <trkpt lat="45.938561683333333" lon="13.548743816666667">
        <time>2009-10-29T14:17:33Z</time>
      </trkpt>
      <trkpt lat="45.938562433333331" lon="13.548870383333334">
        <time>2009-10-29T14:17:34Z</time>
      </trkpt>
      <trkpt lat="45.938562566666668" lon="13.5489884">
        <time>2009-10-29T14:17:35Z</time>
      </trkpt>
      <trkpt lat="45.93856628333333" lon="13.54910215">
        <time>2009-10-29T14:17:36Z</time>
      </trkpt>
      <trkpt lat="45.93857211666667" lon="13.54921345">
        <time>2009-10-29T14:17:37Z</time>
      </trkpt>
      <trkpt lat="45.938581133333336" lon="13.5493184">
        <time>2009-10-29T14:17:38Z</time>
      </trkpt>
      <trkpt lat="45.93859115" lon="13.549413283333333">
        <time>2009-10-29T14:17:39Z</time>
      </trkpt>
      <trkpt lat="45.938601833333337" lon="13.5495028">
        <time>2009-10-29T14:17:40Z</time>
      </trkpt>
      <trkpt lat="45.938611466666664" lon="13.54959005">
        <time>2009-10-29T14:17:41Z</time>
      </trkpt>
      <trkpt lat="45.938619466666665" lon="13.549684683333334">
        <time>2009-10-29T14:17:42Z</time>
      </trkpt>
      <trkpt lat="45.938627516666664" lon="13.54978845">
        <time>2009-10-29T14:17:43Z</time>
      </trkpt>
      <trkpt lat="45.9386364" lon="13.5499022">
        <time>2009-10-29T14:17:44Z</time>
      </trkpt>
      <trkpt lat="45.938643983333336" lon="13.55002215">
        <time>2009-10-29T14:17:45Z</time>
      </trkpt>
      <trkpt lat="45.938646833333337" lon="13.55015105">
        <time>2009-10-29T14:17:46Z</time>
      </trkpt>
      <trkpt lat="45.938645616666669" lon="13.550285166666667">
        <time>2009-10-29T14:17:47Z</time>
      </trkpt>
      <trkpt lat="45.938636616666663" lon="13.550421533333333">
        <time>2009-10-29T14:17:48Z</time>
      </trkpt>
      <trkpt lat="45.93862035" lon="13.550560266666666">
        <time>2009-10-29T14:17:49Z</time>
      </trkpt>
      <trkpt lat="45.938606233333331" lon="13.550705266666666">
        <time>2009-10-29T14:17:50Z</time>
      </trkpt>
      <trkpt lat="45.9385914" lon="13.550855216666667">
        <time>2009-10-29T14:17:51Z</time>
      </trkpt>
      <trkpt lat="45.938577933333335" lon="13.551002916666667">
        <time>2009-10-29T14:17:52Z</time>
      </trkpt>
      <trkpt lat="45.938564283333335" lon="13.551154033333333">
        <time>2009-10-29T14:17:53Z</time>
      </trkpt>
      <trkpt lat="45.9385468" lon="13.551300716666667">
        <time>2009-10-29T14:17:54Z</time>
      </trkpt>
      <trkpt lat="45.938530616666668" lon="13.551446733333334">
        <time>2009-10-29T14:17:55Z</time>
      </trkpt>
      <trkpt lat="45.93851345" lon="13.551593916666667">
        <time>2009-10-29T14:17:56Z</time>
      </trkpt>
      <trkpt lat="45.93849735" lon="13.551739683333333">
        <time>2009-10-29T14:17:57Z</time>
      </trkpt>
      <trkpt lat="45.938486366666666" lon="13.5518851">
        <time>2009-10-29T14:17:58Z</time>
      </trkpt>
      <trkpt lat="45.938478533333331" lon="13.55202995">
        <time>2009-10-29T14:17:59Z</time>
      </trkpt>
      <trkpt lat="45.93847208333333" lon="13.552174116666666">
        <time>2009-10-29T14:18:00Z</time>
      </trkpt>
      <trkpt lat="45.938471483333331" lon="13.552318033333334">
        <time>2009-10-29T14:18:01Z</time>
      </trkpt>
      <trkpt lat="45.938467133333333" lon="13.55246195">
        <time>2009-10-29T14:18:02Z</time>
      </trkpt>
      <trkpt lat="45.938463016666667" lon="13.5526046">
        <time>2009-10-29T14:18:03Z</time>
      </trkpt>
      <trkpt lat="45.938463016666667" lon="13.552747183333333">
        <time>2009-10-29T14:18:04Z</time>
      </trkpt>
      <trkpt lat="45.9384632" lon="13.552887166666666">
        <time>2009-10-29T14:18:05Z</time>
      </trkpt>
      <trkpt lat="45.93846503333333" lon="13.553022866666666">
        <time>2009-10-29T14:18:06Z</time>
      </trkpt>
      <trkpt lat="45.9384691" lon="13.5531563">
        <time>2009-10-29T14:18:07Z</time>
      </trkpt>
      <trkpt lat="45.93847325" lon="13.5532869">
        <time>2009-10-29T14:18:08Z</time>
      </trkpt>
      <trkpt lat="45.93848486666667" lon="13.5534148">
        <time>2009-10-29T14:18:09Z</time>
      </trkpt>
      <trkpt lat="45.938501416666668" lon="13.5535443">
        <time>2009-10-29T14:18:10Z</time>
      </trkpt>
      <trkpt lat="45.938518683333335" lon="13.553673133333334">
        <time>2009-10-29T14:18:11Z</time>
      </trkpt>
      <trkpt lat="45.93853435" lon="13.5538033">
        <time>2009-10-29T14:18:12Z</time>
      </trkpt>
      <trkpt lat="45.938549066666667" lon="13.553931883333334">
        <time>2009-10-29T14:18:13Z</time>
      </trkpt>
      <trkpt lat="45.9385652" lon="13.554054083333334">
        <time>2009-10-29T14:18:14Z</time>
      </trkpt>
      <trkpt lat="45.938582716666666" lon="13.554174533333333">
        <time>2009-10-29T14:18:15Z</time>
      </trkpt>
      <trkpt lat="45.9386002" lon="13.554292216666667">
        <time>2009-10-29T14:18:16Z</time>
      </trkpt>
      <trkpt lat="45.9386162" lon="13.5544006">
        <time>2009-10-29T14:18:17Z</time>
      </trkpt>
      <trkpt lat="45.938626633333335" lon="13.554494133333334">
        <time>2009-10-29T14:18:18Z</time>
      </trkpt>
      <trkpt lat="45.9386188" lon="13.55456915">
        <time>2009-10-29T14:18:19Z</time>
      </trkpt>
      <trkpt lat="45.93858121666667" lon="13.554638216666667">
        <time>2009-10-29T14:18:20Z</time>
      </trkpt>
      <trkpt lat="45.938527066666666" lon="13.554703433333334">
        <time>2009-10-29T14:18:21Z</time>
      </trkpt>
      <trkpt lat="45.93845485" lon="13.554755316666666">
        <time>2009-10-29T14:18:22Z</time>
      </trkpt>
      <trkpt lat="45.938371366666665" lon="13.554796216666666">
        <time>2009-10-29T14:18:23Z</time>
      </trkpt>
      <trkpt lat="45.938280383333336" lon="13.55483495">
        <time>2009-10-29T14:18:24Z</time>
      </trkpt>
      <trkpt lat="45.938182566666669" lon="13.5548771">
        <time>2009-10-29T14:18:25Z</time>
      </trkpt>
      <trkpt lat="45.938077083333333" lon="13.554924133333333">
        <time>2009-10-29T14:18:26Z</time>
      </trkpt>
      <trkpt lat="45.937967483333331" lon="13.554968133333333">
        <time>2009-10-29T14:18:27Z</time>
      </trkpt>
      <trkpt lat="45.937853783333331" lon="13.555015666666666">
        <time>2009-10-29T14:18:28Z</time>
      </trkpt>
      <trkpt lat="45.937742933333332" lon="13.55506075">
        <time>2009-10-29T14:18:29Z</time>
      </trkpt>
      <trkpt lat="45.9376362" lon="13.555104433333334">
        <time>2009-10-29T14:18:30Z</time>
      </trkpt>
      <trkpt lat="45.937532" lon="13.555149016666666">
        <time>2009-10-29T14:18:31Z</time>
      </trkpt>
      <trkpt lat="45.937426766666668" lon="13.55517995">
        <time>2009-10-29T14:18:32Z</time>
      </trkpt>
      <trkpt lat="45.937321333333337" lon="13.555193016666667">
        <time>2009-10-29T14:18:33Z</time>
      </trkpt>
      <trkpt lat="45.937215" lon="13.555198716666666">
        <time>2009-10-29T14:18:34Z</time>
      </trkpt>
      <trkpt lat="45.937107966666666" lon="13.555192683333333">
        <time>2009-10-29T14:18:35Z</time>
      </trkpt>
      <trkpt lat="45.9370037" lon="13.555172483333333">
        <time>2009-10-29T14:18:36Z</time>
      </trkpt>
      <trkpt lat="45.936904033333334" lon="13.555143816666666">
        <time>2009-10-29T14:18:37Z</time>
      </trkpt>
      <trkpt lat="45.9368086" lon="13.555107183333334">
        <time>2009-10-29T14:18:38Z</time>
      </trkpt>
      <trkpt lat="45.936716033333333" lon="13.555064016666666">
        <time>2009-10-29T14:18:39Z</time>
      </trkpt>
      <trkpt lat="45.936627266666669" lon="13.555021366666667">
        <time>2009-10-29T14:18:40Z</time>
      </trkpt>
      <trkpt lat="45.936536066666669" lon="13.554982633333333">
        <time>2009-10-29T14:18:41Z</time>
      </trkpt>
      <trkpt lat="45.93643875" lon="13.554942983333333">
        <time>2009-10-29T14:18:42Z</time>
      </trkpt>
      <trkpt lat="45.93633495" lon="13.554902166666666">
        <time>2009-10-29T14:18:43Z</time>
      </trkpt>
      <trkpt lat="45.936228916666664" lon="13.554859">
        <time>2009-10-29T14:18:44Z</time>
      </trkpt>
      <trkpt lat="45.936118233333332" lon="13.554814666666667">
        <time>2009-10-29T14:18:45Z</time>
      </trkpt>
      <trkpt lat="45.936005116666664" lon="13.554771333333333">
        <time>2009-10-29T14:18:46Z</time>
      </trkpt>
      <trkpt lat="45.9358969" lon="13.5547316">
        <time>2009-10-29T14:18:47Z</time>
      </trkpt>
      <trkpt lat="45.935798383333335" lon="13.55469865">
        <time>2009-10-29T14:18:48Z</time>
      </trkpt>
      <trkpt lat="45.9357156" lon="13.554667316666666">
        <time>2009-10-29T14:18:49Z</time>
      </trkpt>
      <trkpt lat="45.93564675" lon="13.55464175">
        <time>2009-10-29T14:18:50Z</time>
      </trkpt>
      <trkpt lat="45.935594533333337" lon="13.554621966666666">
        <time>2009-10-29T14:18:51Z</time>
      </trkpt>
      <trkpt lat="45.935559616666666" lon="13.554617433333334">
        <time>2009-10-29T14:18:52Z</time>
      </trkpt>
      <trkpt lat="45.935543983333332" lon="13.554621716666666">
        <time>2009-10-29T14:18:53Z</time>
      </trkpt>
      <trkpt lat="45.93554293333333" lon="13.554623633333334">
        <time>2009-10-29T14:18:54Z</time>
      </trkpt>
      <trkpt lat="45.93554506666667" lon="13.55462415">
        <time>2009-10-29T14:18:55Z</time>
      </trkpt>
      <trkpt lat="45.935543983333332" lon="13.554627333333332">
        <time>2009-10-29T14:18:56Z</time>
      </trkpt>
      <trkpt lat="45.9355351" lon="13.554636883333334">
        <time>2009-10-29T14:18:57Z</time>
      </trkpt>
      <trkpt lat="45.9355183" lon="13.554673183333334">
        <time>2009-10-29T14:18:58Z</time>
      </trkpt>
      <trkpt lat="45.935507683333334" lon="13.554739316666666">
        <time>2009-10-29T14:18:59Z</time>
      </trkpt>
      <trkpt lat="45.93550823333333" lon="13.55481995">
        <time>2009-10-29T14:19:00Z</time>
      </trkpt>
      <trkpt lat="45.935519266666667" lon="13.554915416666667">
        <time>2009-10-29T14:19:01Z</time>
      </trkpt>
      <trkpt lat="45.935539166666665" lon="13.55503075">
        <time>2009-10-29T14:19:02Z</time>
      </trkpt>
      <trkpt lat="45.935567083333332" lon="13.555167033333333">
        <time>2009-10-29T14:19:03Z</time>
      </trkpt>
      <trkpt lat="45.935595233333331" lon="13.55530785">
        <time>2009-10-29T14:19:04Z</time>
      </trkpt>
      <trkpt lat="45.93562365" lon="13.555452533333334">
        <time>2009-10-29T14:19:05Z</time>
      </trkpt>
      <trkpt lat="45.9356524" lon="13.555601716666667">
        <time>2009-10-29T14:19:06Z</time>
      </trkpt>
      <trkpt lat="45.93568225" lon="13.555758216666666">
        <time>2009-10-29T14:19:07Z</time>
      </trkpt>
      <trkpt lat="45.9357128" lon="13.555921066666667">
        <time>2009-10-29T14:19:08Z</time>
      </trkpt>
      <trkpt lat="45.935742516666664" lon="13.556088033333333">
        <time>2009-10-29T14:19:09Z</time>
      </trkpt>
      <trkpt lat="45.935772683333333" lon="13.556259116666666">
        <time>2009-10-29T14:19:10Z</time>
      </trkpt>
      <trkpt lat="45.93580605" lon="13.556433466666666">
        <time>2009-10-29T14:19:11Z</time>
      </trkpt>
      <trkpt lat="45.9358405" lon="13.556612333333334">
        <time>2009-10-29T14:19:12Z</time>
      </trkpt>
      <trkpt lat="45.935877833333336" lon="13.5567928">
        <time>2009-10-29T14:19:13Z</time>
      </trkpt>
      <trkpt lat="45.935910866666667" lon="13.556972416666667">
        <time>2009-10-29T14:19:14Z</time>
      </trkpt>
      <trkpt lat="45.935943933333334" lon="13.557150366666667">
        <time>2009-10-29T14:19:15Z</time>
      </trkpt>
      <trkpt lat="45.935976116666666" lon="13.5573258">
        <time>2009-10-29T14:19:16Z</time>
      </trkpt>
      <trkpt lat="45.936006616666667" lon="13.557495033333334">
        <time>2009-10-29T14:19:17Z</time>
      </trkpt>
      <trkpt lat="45.936038566666667" lon="13.557661833333333">
        <time>2009-10-29T14:19:18Z</time>
      </trkpt>
      <trkpt lat="45.936068433333332" lon="13.5578257">
        <time>2009-10-29T14:19:19Z</time>
      </trkpt>
      <trkpt lat="45.936097366666665" lon="13.557988216666667">
        <time>2009-10-29T14:19:20Z</time>
      </trkpt>
      <trkpt lat="45.936127316666663" lon="13.558147816666667">
        <time>2009-10-29T14:19:21Z</time>
      </trkpt>
      <trkpt lat="45.9361518" lon="13.558300366666666">
        <time>2009-10-29T14:19:22Z</time>
      </trkpt>
      <trkpt lat="45.9361748" lon="13.558453">
        <time>2009-10-29T14:19:23Z</time>
      </trkpt>
      <trkpt lat="45.936193283333331" lon="13.558603533333333">
        <time>2009-10-29T14:19:24Z</time>
      </trkpt>
      <trkpt lat="45.936207616666664" lon="13.558752316666666">
        <time>2009-10-29T14:19:25Z</time>
      </trkpt>
      <trkpt lat="45.9362197" lon="13.55890235">
        <time>2009-10-29T14:19:26Z</time>
      </trkpt>
      <trkpt lat="45.936227366666664" lon="13.5590549">
        <time>2009-10-29T14:19:27Z</time>
      </trkpt>
      <trkpt lat="45.93623155" lon="13.559207116666666">
        <time>2009-10-29T14:19:28Z</time>
      </trkpt>
      <trkpt lat="45.936231966666668" lon="13.559360583333333">
        <time>2009-10-29T14:19:29Z</time>
      </trkpt>
      <trkpt lat="45.93623235" lon="13.559513816666668">
        <time>2009-10-29T14:19:30Z</time>
      </trkpt>
      <trkpt lat="45.93622745" lon="13.559661583333334">
        <time>2009-10-29T14:19:31Z</time>
      </trkpt>
      <trkpt lat="45.936219516666668" lon="13.55980315">
        <time>2009-10-29T14:19:32Z</time>
      </trkpt>
      <trkpt lat="45.936208583333332" lon="13.5599422">
        <time>2009-10-29T14:19:33Z</time>
      </trkpt>
      <trkpt lat="45.936196516666669" lon="13.560080083333334">
        <time>2009-10-29T14:19:34Z</time>
      </trkpt>
      <trkpt lat="45.936178866666665" lon="13.5602215">
        <time>2009-10-29T14:19:35Z</time>
      </trkpt>
      <trkpt lat="45.9361565" lon="13.560368016666667">
        <time>2009-10-29T14:19:36Z</time>
      </trkpt>
      <trkpt lat="45.936132816666664" lon="13.560517283333333">
        <time>2009-10-29T14:19:37Z</time>
      </trkpt>
      <trkpt lat="45.936105283333333" lon="13.5606695">
        <time>2009-10-29T14:19:38Z</time>
      </trkpt>
      <trkpt lat="45.936075066666668" lon="13.560825066666666">
        <time>2009-10-29T14:19:39Z</time>
      </trkpt>
      <trkpt lat="45.93604435" lon="13.56098215">
        <time>2009-10-29T14:19:40Z</time>
      </trkpt>
      <trkpt lat="45.936011733333331" lon="13.561140733333334">
        <time>2009-10-29T14:19:41Z</time>
      </trkpt>
      <trkpt lat="45.935979633333332" lon="13.561300583333333">
        <time>2009-10-29T14:19:42Z</time>
      </trkpt>
      <trkpt lat="45.93594765" lon="13.56145765">
        <time>2009-10-29T14:19:43Z</time>
      </trkpt>
      <trkpt lat="45.935919783333333" lon="13.561610633333334">
        <time>2009-10-29T14:19:44Z</time>
      </trkpt>
      <trkpt lat="45.93588945" lon="13.561764266666666">
        <time>2009-10-29T14:19:45Z</time>
      </trkpt>
      <trkpt lat="45.9358599" lon="13.561913716666666">
        <time>2009-10-29T14:19:46Z</time>
      </trkpt>
      <trkpt lat="45.935832033333334" lon="13.562060566666666">
        <time>2009-10-29T14:19:47Z</time>
      </trkpt>
      <trkpt lat="45.935804533333332" lon="13.562203983333333">
        <time>2009-10-29T14:19:48Z</time>
      </trkpt>
      <trkpt lat="45.93577675" lon="13.562346816666667">
        <time>2009-10-29T14:19:49Z</time>
      </trkpt>
      <trkpt lat="45.93575055" lon="13.562486533333333">
        <time>2009-10-29T14:19:50Z</time>
      </trkpt>
      <trkpt lat="45.935724316666665" lon="13.562625933333333">
        <time>2009-10-29T14:19:51Z</time>
      </trkpt>
      <trkpt lat="45.935698" lon="13.562766483333334">
        <time>2009-10-29T14:19:52Z</time>
      </trkpt>
      <trkpt lat="45.9356737" lon="13.5629094">
        <time>2009-10-29T14:19:53Z</time>
      </trkpt>
      <trkpt lat="45.935649183333332" lon="13.563056">
        <time>2009-10-29T14:19:54Z</time>
      </trkpt>
      <trkpt lat="45.935622233333333" lon="13.563201766666667">
        <time>2009-10-29T14:19:55Z</time>
      </trkpt>
      <trkpt lat="45.935596666666669" lon="13.563345683333333">
        <time>2009-10-29T14:19:56Z</time>
      </trkpt>
      <trkpt lat="45.9355706" lon="13.563490766666666">
        <time>2009-10-29T14:19:57Z</time>
      </trkpt>
      <trkpt lat="45.935542266666666" lon="13.5636346">
        <time>2009-10-29T14:19:58Z</time>
      </trkpt>
      <trkpt lat="45.935515316666667" lon="13.563776433333333">
        <time>2009-10-29T14:19:59Z</time>
      </trkpt>
      <trkpt lat="45.935488366666668" lon="13.563916566666666">
        <time>2009-10-29T14:20:00Z</time>
      </trkpt>
      <trkpt lat="45.935463766666665" lon="13.564054283333334">
        <time>2009-10-29T14:20:01Z</time>
      </trkpt>
      <trkpt lat="45.9354382" lon="13.564192083333333">
        <time>2009-10-29T14:20:02Z</time>
      </trkpt>
      <trkpt lat="45.935412766666666" lon="13.5643308">
        <time>2009-10-29T14:20:03Z</time>
      </trkpt>
      <trkpt lat="45.935386316666666" lon="13.564473716666667">
        <time>2009-10-29T14:20:04Z</time>
      </trkpt>
      <trkpt lat="45.935358583333333" lon="13.564619983333333">
        <time>2009-10-29T14:20:05Z</time>
      </trkpt>
      <trkpt lat="45.935332466666665" lon="13.5647711">
        <time>2009-10-29T14:20:06Z</time>
      </trkpt>
      <trkpt lat="45.93530728333333" lon="13.564925416666666">
        <time>2009-10-29T14:20:07Z</time>
      </trkpt>
      <trkpt lat="45.93527995" lon="13.565085266666667">
        <time>2009-10-29T14:20:08Z</time>
      </trkpt>
      <trkpt lat="45.935254466666663" lon="13.565244516666667">
        <time>2009-10-29T14:20:09Z</time>
      </trkpt>
      <trkpt lat="45.93523335" lon="13.5654016">
        <time>2009-10-29T14:20:10Z</time>
      </trkpt>
      <trkpt lat="45.935213233333336" lon="13.565558083333332">
        <time>2009-10-29T14:20:11Z</time>
      </trkpt>
      <trkpt lat="45.935194166666669" lon="13.565712233333333">
        <time>2009-10-29T14:20:12Z</time>
      </trkpt>
      <trkpt lat="45.9351774" lon="13.5658626">
        <time>2009-10-29T14:20:13Z</time>
      </trkpt>
      <trkpt lat="45.935161233333332" lon="13.566008366666667">
        <time>2009-10-29T14:20:14Z</time>
      </trkpt>
      <trkpt lat="45.935147066666666" lon="13.566148916666666">
        <time>2009-10-29T14:20:15Z</time>
      </trkpt>
      <trkpt lat="45.935133066666666" lon="13.566281616666666">
        <time>2009-10-29T14:20:16Z</time>
      </trkpt>
      <trkpt lat="45.93512045" lon="13.566416816666667">
        <time>2009-10-29T14:20:17Z</time>
      </trkpt>
      <trkpt lat="45.935110216666665" lon="13.566549583333334">
        <time>2009-10-29T14:20:18Z</time>
      </trkpt>
      <trkpt lat="45.9351013" lon="13.566683433333333">
        <time>2009-10-29T14:20:19Z</time>
      </trkpt>
      <trkpt lat="45.9350925" lon="13.566813183333334">
        <time>2009-10-29T14:20:20Z</time>
      </trkpt>
      <trkpt lat="45.935084733333333" lon="13.5669447">
        <time>2009-10-29T14:20:21Z</time>
      </trkpt>
      <trkpt lat="45.935077366666668" lon="13.56708065">
        <time>2009-10-29T14:20:22Z</time>
      </trkpt>
      <trkpt lat="45.9350715" lon="13.567222066666666">
        <time>2009-10-29T14:20:23Z</time>
      </trkpt>
      <trkpt lat="45.9350668" lon="13.56736615">
        <time>2009-10-29T14:20:24Z</time>
      </trkpt>
      <trkpt lat="45.935061983333334" lon="13.56751735">
        <time>2009-10-29T14:20:25Z</time>
      </trkpt>
      <trkpt lat="45.935058716666667" lon="13.567670833333333">
        <time>2009-10-29T14:20:26Z</time>
      </trkpt>
      <trkpt lat="45.935055533333333" lon="13.567825966666666">
        <time>2009-10-29T14:20:27Z</time>
      </trkpt>
      <trkpt lat="45.93505335" lon="13.5679838">
        <time>2009-10-29T14:20:28Z</time>
      </trkpt>
      <trkpt lat="45.935052383333336" lon="13.568141966666667">
        <time>2009-10-29T14:20:29Z</time>
      </trkpt>
      <trkpt lat="45.9350528" lon="13.568299216666666">
        <time>2009-10-29T14:20:30Z</time>
      </trkpt>
      <trkpt lat="45.93505335" lon="13.56845605">
        <time>2009-10-29T14:20:31Z</time>
      </trkpt>
      <trkpt lat="45.93505775" lon="13.568610683333333">
        <time>2009-10-29T14:20:32Z</time>
      </trkpt>
      <trkpt lat="45.93506555" lon="13.568762483333334">
        <time>2009-10-29T14:20:33Z</time>
      </trkpt>
      <trkpt lat="45.935076183333337" lon="13.568913866666668">
        <time>2009-10-29T14:20:34Z</time>
      </trkpt>
      <trkpt lat="45.935088216666664" lon="13.56906155">
        <time>2009-10-29T14:20:35Z</time>
      </trkpt>
      <trkpt lat="45.935102633333337" lon="13.5692094">
        <time>2009-10-29T14:20:36Z</time>
      </trkpt>
      <trkpt lat="45.935119816666663" lon="13.569353333333334">
        <time>2009-10-29T14:20:37Z</time>
      </trkpt>
      <trkpt lat="45.93513885" lon="13.569492216666667">
        <time>2009-10-29T14:20:38Z</time>
      </trkpt>
      <trkpt lat="45.9351564" lon="13.569626483333334">
        <time>2009-10-29T14:20:39Z</time>
      </trkpt>
      <trkpt lat="45.935173666666664" lon="13.569754983333333">
        <time>2009-10-29T14:20:40Z</time>
      </trkpt>
      <trkpt lat="45.935192316666665" lon="13.56988205">
        <time>2009-10-29T14:20:41Z</time>
      </trkpt>
      <trkpt lat="45.93521085" lon="13.570008866666667">
        <time>2009-10-29T14:20:42Z</time>
      </trkpt>
      <trkpt lat="45.935228033333331" lon="13.57013595">
        <time>2009-10-29T14:20:43Z</time>
      </trkpt>
      <trkpt lat="45.935246883333335" lon="13.570266116666666">
        <time>2009-10-29T14:20:44Z</time>
      </trkpt>
      <trkpt lat="45.935267683333336" lon="13.570397633333334">
        <time>2009-10-29T14:20:45Z</time>
      </trkpt>
      <trkpt lat="45.935290733333332" lon="13.570530816666666">
        <time>2009-10-29T14:20:46Z</time>
      </trkpt>
      <trkpt lat="45.93532035" lon="13.570664416666666">
        <time>2009-10-29T14:20:47Z</time>
      </trkpt>
      <trkpt lat="45.935342733333336" lon="13.5707982">
        <time>2009-10-29T14:20:48Z</time>
      </trkpt>
      <trkpt lat="45.935373366666667" lon="13.57093055">
        <time>2009-10-29T14:20:49Z</time>
      </trkpt>
      <trkpt lat="45.93540183333333" lon="13.571060966666666">
        <time>2009-10-29T14:20:50Z</time>
      </trkpt>
      <trkpt lat="45.9354333" lon="13.571189633333333">
        <time>2009-10-29T14:20:51Z</time>
      </trkpt>
      <trkpt lat="45.935461666666669" lon="13.57131485">
        <time>2009-10-29T14:20:52Z</time>
      </trkpt>
      <trkpt lat="45.935487566666666" lon="13.571442016666667">
        <time>2009-10-29T14:20:53Z</time>
      </trkpt>
      <trkpt lat="45.935516066666665" lon="13.57156715">
        <time>2009-10-29T14:20:54Z</time>
      </trkpt>
      <trkpt lat="45.935541549999996" lon="13.571694983333334">
        <time>2009-10-29T14:20:55Z</time>
      </trkpt>
      <trkpt lat="45.93556603333333" lon="13.571824316666667">
        <time>2009-10-29T14:20:56Z</time>
      </trkpt>
      <trkpt lat="45.935590133333335" lon="13.571953483333333">
        <time>2009-10-29T14:20:57Z</time>
      </trkpt>
      <trkpt lat="45.93560425" lon="13.57207945">
        <time>2009-10-29T14:20:58Z</time>
      </trkpt>
      <trkpt lat="45.93561498333333" lon="13.572203933333334">
        <time>2009-10-29T14:20:59Z</time>
      </trkpt>
      <trkpt lat="45.935644266666664" lon="13.5723263">
        <time>2009-10-29T14:21:00Z</time>
      </trkpt>
      <trkpt lat="45.93567605" lon="13.572445333333333">
        <time>2009-10-29T14:21:01Z</time>
      </trkpt>
      <trkpt lat="45.935699633333336" lon="13.572562">
        <time>2009-10-29T14:21:02Z</time>
      </trkpt>
      <trkpt lat="45.93572315" lon="13.572677666666667">
        <time>2009-10-29T14:21:03Z</time>
      </trkpt>
      <trkpt lat="45.935742683333331" lon="13.5727936">
        <time>2009-10-29T14:21:04Z</time>
      </trkpt>
      <trkpt lat="45.935755166666667" lon="13.5729055">
        <time>2009-10-29T14:21:05Z</time>
      </trkpt>
      <trkpt lat="45.9357578" lon="13.573016383333334">
        <time>2009-10-29T14:21:06Z</time>
      </trkpt>
      <trkpt lat="45.935781483333336" lon="13.573129366666667">
        <time>2009-10-29T14:21:07Z</time>
      </trkpt>
      <trkpt lat="45.935804916666669" lon="13.573240683333333">
        <time>2009-10-29T14:21:08Z</time>
      </trkpt>
      <trkpt lat="45.9358231" lon="13.573353083333334">
        <time>2009-10-29T14:21:09Z</time>
      </trkpt>
      <trkpt lat="45.935833833333334" lon="13.573466066666667">
        <time>2009-10-29T14:21:10Z</time>
      </trkpt>
      <trkpt lat="45.935853983333331" lon="13.573579566666666">
        <time>2009-10-29T14:21:11Z</time>
      </trkpt>
      <trkpt lat="45.93587985" lon="13.573693983333333">
        <time>2009-10-29T14:21:12Z</time>
      </trkpt>
      <trkpt lat="45.935902433333332" lon="13.573810483333334">
        <time>2009-10-29T14:21:13Z</time>
      </trkpt>
      <trkpt lat="45.935933283333334" lon="13.573932616666667">
        <time>2009-10-29T14:21:14Z</time>
      </trkpt>
      <trkpt lat="45.935966766666667" lon="13.5740585">
        <time>2009-10-29T14:21:15Z</time>
      </trkpt>
      <trkpt lat="45.93599065" lon="13.574183316666666">
        <time>2009-10-29T14:21:16Z</time>
      </trkpt>
      <trkpt lat="45.936009266666666" lon="13.574305516666668">
        <time>2009-10-29T14:21:17Z</time>
      </trkpt>
      <trkpt lat="45.936030016666663" lon="13.574427233333333">
        <time>2009-10-29T14:21:18Z</time>
      </trkpt>
      <trkpt lat="45.936056616666669" lon="13.574547166666667">
        <time>2009-10-29T14:21:19Z</time>
      </trkpt>
      <trkpt lat="45.936078583333334" lon="13.574661833333334">
        <time>2009-10-29T14:21:20Z</time>
      </trkpt>
      <trkpt lat="45.936097533333331" lon="13.5747729">
        <time>2009-10-29T14:21:21Z</time>
      </trkpt>
      <trkpt lat="45.936116216666669" lon="13.574879183333334">
        <time>2009-10-29T14:21:22Z</time>
      </trkpt>
      <trkpt lat="45.9361319" lon="13.574983366666666">
        <time>2009-10-29T14:21:23Z</time>
      </trkpt>
      <trkpt lat="45.936146316666665" lon="13.575089233333333">
        <time>2009-10-29T14:21:24Z</time>
      </trkpt>
      <trkpt lat="45.936160683333334" lon="13.575195183333333">
        <time>2009-10-29T14:21:25Z</time>
      </trkpt>
      <trkpt lat="45.936159633333332" lon="13.575302133333333">
        <time>2009-10-29T14:21:26Z</time>
      </trkpt>
      <trkpt lat="45.93613345" lon="13.575407566666666">
        <time>2009-10-29T14:21:27Z</time>
      </trkpt>
      <trkpt lat="45.936129083333334" lon="13.575512933333334">
        <time>2009-10-29T14:21:28Z</time>
      </trkpt>
      <trkpt lat="45.936121883333335" lon="13.575616366666667">
        <time>2009-10-29T14:21:29Z</time>
      </trkpt>
      <trkpt lat="45.936101933333333" lon="13.57571855">
        <time>2009-10-29T14:21:30Z</time>
      </trkpt>
      <trkpt lat="45.936080383333334" lon="13.57582105">
        <time>2009-10-29T14:21:31Z</time>
      </trkpt>
      <trkpt lat="45.936058716666665" lon="13.575929516666667">
        <time>2009-10-29T14:21:32Z</time>
      </trkpt>
      <trkpt lat="45.936031516666667" lon="13.576041416666667">
        <time>2009-10-29T14:21:33Z</time>
      </trkpt>
      <trkpt lat="45.93599806666667" lon="13.576159933333333">
        <time>2009-10-29T14:21:34Z</time>
      </trkpt>
      <trkpt lat="45.935962333333336" lon="13.576282316666667">
        <time>2009-10-29T14:21:35Z</time>
      </trkpt>
      <trkpt lat="45.935934616666664" lon="13.576412816666666">
        <time>2009-10-29T14:21:36Z</time>
      </trkpt>
      <trkpt lat="45.935912416666667" lon="13.576551033333333">
        <time>2009-10-29T14:21:37Z</time>
      </trkpt>
      <trkpt lat="45.935891883333333" lon="13.576693616666667">
        <time>2009-10-29T14:21:38Z</time>
      </trkpt>
      <trkpt lat="45.935877" lon="13.57684155">
        <time>2009-10-29T14:21:39Z</time>
      </trkpt>
      <trkpt lat="45.935868783333333" lon="13.57699855">
        <time>2009-10-29T14:21:40Z</time>
      </trkpt>
      <trkpt lat="45.9358576" lon="13.577158966666667">
        <time>2009-10-29T14:21:41Z</time>
      </trkpt>
      <trkpt lat="45.935849" lon="13.57732585">
        <time>2009-10-29T14:21:42Z</time>
      </trkpt>
      <trkpt lat="45.935843183333333" lon="13.577499866666667">
        <time>2009-10-29T14:21:43Z</time>
      </trkpt>
      <trkpt lat="45.93584125" lon="13.577676883333334">
        <time>2009-10-29T14:21:44Z</time>
      </trkpt>
      <trkpt lat="45.935847616666663" lon="13.5778561">
        <time>2009-10-29T14:21:45Z</time>
      </trkpt>
      <trkpt lat="45.935864516666669" lon="13.578037066666667">
        <time>2009-10-29T14:21:46Z</time>
      </trkpt>
      <trkpt lat="45.935892416666668" lon="13.578218616666666">
        <time>2009-10-29T14:21:47Z</time>
      </trkpt>
      <trkpt lat="45.9359265" lon="13.578399416666667">
        <time>2009-10-29T14:21:48Z</time>
      </trkpt>
      <trkpt lat="45.935965766666669" lon="13.5785808">
        <time>2009-10-29T14:21:49Z</time>
      </trkpt>
      <trkpt lat="45.936008683333334" lon="13.578761683333333">
        <time>2009-10-29T14:21:50Z</time>
      </trkpt>
      <trkpt lat="45.936048666666665" lon="13.578939883333334">
        <time>2009-10-29T14:21:51Z</time>
      </trkpt>
      <trkpt lat="45.9360901" lon="13.579115816666667">
        <time>2009-10-29T14:21:52Z</time>
      </trkpt>
      <trkpt lat="45.936132483333331" lon="13.579290833333333">
        <time>2009-10-29T14:21:53Z</time>
      </trkpt>
      <trkpt lat="45.936172" lon="13.57946425">
        <time>2009-10-29T14:21:54Z</time>
      </trkpt>
      <trkpt lat="45.93620778333333" lon="13.579637083333333">
        <time>2009-10-29T14:21:55Z</time>
      </trkpt>
      <trkpt lat="45.936238716666665" lon="13.57980715">
        <time>2009-10-29T14:21:56Z</time>
      </trkpt>
      <trkpt lat="45.9362645" lon="13.579979816666667">
        <time>2009-10-29T14:21:57Z</time>
      </trkpt>
      <trkpt lat="45.936286333333335" lon="13.580152316666666">
        <time>2009-10-29T14:21:58Z</time>
      </trkpt>
      <trkpt lat="45.936303016666663" lon="13.580321216666666">
        <time>2009-10-29T14:21:59Z</time>
      </trkpt>
      <trkpt lat="45.936317216666666" lon="13.58049095">
        <time>2009-10-29T14:22:00Z</time>
      </trkpt>
      <trkpt lat="45.9363308" lon="13.580661266666667">
        <time>2009-10-29T14:22:01Z</time>
      </trkpt>
      <trkpt lat="45.93634165" lon="13.580832683333334">
        <time>2009-10-29T14:22:02Z</time>
      </trkpt>
      <trkpt lat="45.936348816666666" lon="13.581002416666667">
        <time>2009-10-29T14:22:03Z</time>
      </trkpt>
      <trkpt lat="45.93635225" lon="13.581171216666666">
        <time>2009-10-29T14:22:04Z</time>
      </trkpt>
      <trkpt lat="45.936353516666664" lon="13.581339366666667">
        <time>2009-10-29T14:22:05Z</time>
      </trkpt>
      <trkpt lat="45.936347766666664" lon="13.581507666666667">
        <time>2009-10-29T14:22:06Z</time>
      </trkpt>
      <trkpt lat="45.936338966666668" lon="13.581674133333333">
        <time>2009-10-29T14:22:07Z</time>
      </trkpt>
      <trkpt lat="45.9363256" lon="13.581840433333333">
        <time>2009-10-29T14:22:08Z</time>
      </trkpt>
      <trkpt lat="45.93630996666667" lon="13.5820074">
        <time>2009-10-29T14:22:09Z</time>
      </trkpt>
    </trkseg>
  </trk>
</gpx>